sensor_id;sensor_type;location;lat;lon;timestamp;P1;P2;P0
12246;PMS7003;6186;52.022;4.692;2023-04-01T00:01:01;8.80;8.80;4.00
12246;PMS7003;6186;52.022;4.692;2023-04-01T00:03:27;9.20;9.00;4.00
12246;PMS7003;6186;52.022;4.692;2023-04-01T00:05:54;10.80;8.80;4.00
12246;PMS7003;6186;52.022;4.692;2023-04-01T00:08:21;12.60;9.00;4.80
12246;PMS7003;6186;52.022;4.692;2023-04-01T00:10:47;8.60;8.20;4.00
12246;PMS7003;6186;52.022;4.692;2023-04-01T00:13:12;9.75;8.75;4.50
12246;PMS7003;6186;52.022;4.692;2023-04-01T00:15:38;13.00;10.00;4.00
12246;PMS7003;6186;52.022;4.692;2023-04-01T00:18:03;10.25;8.25;3.00
12246;PMS7003;6186;52.022;4.692;2023-04-01T00:20:29;8.20;7.60;3.00
12246;PMS7003;6186;52.022;4.692;2023-04-01T00:22:55;11.80;8.60;3.80
12246;PMS7003;6186;52.022;4.692;2023-04-01T00:25:21;9.50;7.75;3.75
12246;PMS7003;6186;52.022;4.692;2023-04-01T00:27:46;8.75;7.75;2.50
12246;PMS7003;6186;52.022;4.692;2023-04-01T00:30:12;8.75;7.00;2.00
12246;PMS7003;6186;52.022;4.692;2023-04-01T00:32:38;8.50;7.00;3.00
12246;PMS7003;6186;52.022;4.692;2023-04-01T00:35:03;8.25;5.25;2.00
12246;PMS7003;6186;52.022;4.692;2023-04-01T00:37:29;6.80;6.00;3.00
12246;PMS7003;6186;52.022;4.692;2023-04-01T00:39:55;7.00;5.25;2.25
12246;PMS7003;6186;52.022;4.692;2023-04-01T00:42:21;6.40;5.00;2.00
12246;PMS7003;6186;52.022;4.692;2023-04-01T00:44:51;7.50;6.75;2.00
12246;PMS7003;6186;52.022;4.692;2023-04-01T00:47:18;7.00;5.80;2.00
12246;PMS7003;6186;52.022;4.692;2023-04-01T00:49:46;5.80;5.20;2.00
12246;PMS7003;6186;52.022;4.692;2023-04-01T00:52:16;6.20;5.40;2.00
12246;PMS7003;6186;52.022;4.692;2023-04-01T00:54:44;5.20;5.20;2.00
12246;PMS7003;6186;52.022;4.692;2023-04-01T00:57:13;3.40;3.40;1.40
12246;PMS7003;6186;52.022;4.692;2023-04-01T00:59:46;7.20;6.00;2.00
12246;PMS7003;6186;52.022;4.692;2023-04-01T01:02:15;6.60;4.80;1.00
12246;PMS7003;6186;52.022;4.692;2023-04-01T01:04:41;5.60;4.00;2.00
12246;PMS7003;6186;52.022;4.692;2023-04-01T01:07:12;8.00;6.75;2.75
12246;PMS7003;6186;52.022;4.692;2023-04-01T01:12:40;7.20;6.40;2.00
12246;PMS7003;6186;52.022;4.692;2023-04-01T01:15:20;6.20;5.40;2.00
12246;PMS7003;6186;52.022;4.692;2023-04-01T01:17:54;7.00;7.00;2.00
12246;PMS7003;6186;52.022;4.692;2023-04-01T01:20:48;7.80;6.60;2.00
12246;PMS7003;6186;52.022;4.692;2023-04-01T01:23:28;5.80;4.80;1.40
12246;PMS7003;6186;52.022;4.692;2023-04-01T01:31:43;5.20;3.60;1.80
12246;PMS7003;6186;52.022;4.692;2023-04-01T01:34:23;5.60;4.00;1.00
12246;PMS7003;6186;52.022;4.692;2023-04-01T01:37:01;3.00;3.00;1.00
12246;PMS7003;6186;52.022;4.692;2023-04-01T01:39:40;3.00;3.00;1.00
12246;PMS7003;6186;52.022;4.692;2023-04-01T01:42:09;3.20;3.20;1.00
12246;PMS7003;6186;52.022;4.692;2023-04-01T01:44:40;6.60;4.20;2.00
12246;PMS7003;6186;52.022;4.692;2023-04-01T01:47:09;4.00;4.00;1.00
12246;PMS7003;6186;52.022;4.692;2023-04-01T01:49:35;3.40;3.00;1.00
12246;PMS7003;6186;52.022;4.692;2023-04-01T01:52:03;4.20;3.00;1.20
12246;PMS7003;6186;52.022;4.692;2023-04-01T01:54:28;3.50;3.00;1.00
12246;PMS7003;6186;52.022;4.692;2023-04-01T01:57:03;6.00;5.50;2.00
12246;PMS7003;6186;52.022;4.692;2023-04-01T01:59:32;5.60;4.60;1.00
12246;PMS7003;6186;52.022;4.692;2023-04-01T02:02:02;3.00;3.00;1.00
12246;PMS7003;6186;52.022;4.692;2023-04-01T02:04:33;3.00;3.00;1.00
12246;PMS7003;6186;52.022;4.692;2023-04-01T02:07:02;5.80;5.80;2.20
12246;PMS7003;6186;52.022;4.692;2023-04-01T02:09:32;5.60;4.00;2.00
12246;PMS7003;6186;52.022;4.692;2023-04-01T02:12:00;6.00;5.20;2.00
12246;PMS7003;6186;52.022;4.692;2023-04-01T02:14:42;6.20;5.60;2.00
12246;PMS7003;6186;52.022;4.692;2023-04-01T02:17:14;7.20;5.60;2.00
12246;PMS7003;6186;52.022;4.692;2023-04-01T02:19:53;7.00;5.40;1.80
12246;PMS7003;6186;52.022;4.692;2023-04-01T02:22:26;5.40;5.40;2.00
12246;PMS7003;6186;52.022;4.692;2023-04-01T02:25:01;8.40;7.60;3.60
12246;PMS7003;6186;52.022;4.692;2023-04-01T02:27:30;7.80;7.00;3.00
12246;PMS7003;6186;52.022;4.692;2023-04-01T02:29:56;7.50;6.75;2.75
12246;PMS7003;6186;52.022;4.692;2023-04-01T02:32:22;5.80;5.40;2.00
12246;PMS7003;6186;52.022;4.692;2023-04-01T02:34:48;7.00;6.00;2.00
12246;PMS7003;6186;52.022;4.692;2023-04-01T02:37:14;6.25;6.00;3.00
12246;PMS7003;6186;52.022;4.692;2023-04-01T02:39:40;7.50;5.75;2.25
12246;PMS7003;6186;52.022;4.692;2023-04-01T02:42:07;7.00;6.00;2.80
12246;PMS7003;6186;52.022;4.692;2023-04-01T02:44:33;7.25;6.75;3.00
12246;PMS7003;6186;52.022;4.692;2023-04-01T02:46:58;5.25;4.00;2.00
12246;PMS7003;6186;52.022;4.692;2023-04-01T02:49:23;6.00;6.00;2.25
12246;PMS7003;6186;52.022;4.692;2023-04-01T02:51:48;7.00;7.00;2.50
12246;PMS7003;6186;52.022;4.692;2023-04-01T02:54:14;5.25;5.25;2.50
12246;PMS7003;6186;52.022;4.692;2023-04-01T02:56:39;5.25;5.25;2.00
12246;PMS7003;6186;52.022;4.692;2023-04-01T02:59:05;7.00;5.25;2.00
12246;PMS7003;6186;52.022;4.692;2023-04-01T03:01:30;4.75;4.25;2.00
12246;PMS7003;6186;52.022;4.692;2023-04-01T03:03:56;5.25;5.25;2.00
12246;PMS7003;6186;52.022;4.692;2023-04-01T03:06:21;8.00;7.00;2.00
12246;PMS7003;6186;52.022;4.692;2023-04-01T03:08:47;7.00;5.25;3.00
12246;PMS7003;6186;52.022;4.692;2023-04-01T03:11:12;8.00;5.00;2.00
12246;PMS7003;6186;52.022;4.692;2023-04-01T03:13:38;12.60;8.80;4.00
12246;PMS7003;6186;52.022;4.692;2023-04-01T03:16:03;10.00;9.00;4.00
12246;PMS7003;6186;52.022;4.692;2023-04-01T03:18:29;7.75;7.00;3.00
12246;PMS7003;6186;52.022;4.692;2023-04-01T03:20:54;13.00;10.50;4.50
12246;PMS7003;6186;52.022;4.692;2023-04-01T03:23:20;11.00;8.00;4.00
12246;PMS7003;6186;52.022;4.692;2023-04-01T03:25:46;12.80;9.60;4.00
12246;PMS7003;6186;52.022;4.692;2023-04-01T03:28:12;11.00;9.20;4.00
12246;PMS7003;6186;52.022;4.692;2023-04-01T03:30:38;8.40;7.80;3.00
12246;PMS7003;6186;52.022;4.692;2023-04-01T03:33:03;9.00;7.25;2.75
12246;PMS7003;6186;52.022;4.692;2023-04-01T03:35:29;7.50;7.50;3.00
12246;PMS7003;6186;52.022;4.692;2023-04-01T03:37:55;9.75;8.00;3.00
12246;PMS7003;6186;52.022;4.692;2023-04-01T03:40:20;9.00;7.25;2.00
12246;PMS7003;6186;52.022;4.692;2023-04-01T03:42:46;8.00;7.00;2.60
12246;PMS7003;6186;52.022;4.692;2023-04-01T03:45:12;8.00;7.00;2.00
12246;PMS7003;6186;52.022;4.692;2023-04-01T03:47:38;7.00;5.25;2.00
12246;PMS7003;6186;52.022;4.692;2023-04-01T03:50:04;6.00;4.60;2.00
12246;PMS7003;6186;52.022;4.692;2023-04-01T03:52:31;6.60;4.00;2.00
12246;PMS7003;6186;52.022;4.692;2023-04-01T03:54:56;5.00;4.00;1.25
12246;PMS7003;6186;52.022;4.692;2023-04-01T03:57:21;6.00;4.25;2.00
12246;PMS7003;6186;52.022;4.692;2023-04-01T03:59:47;4.00;4.00;1.50
12246;PMS7003;6186;52.022;4.692;2023-04-01T04:02:12;5.00;3.25;1.75
12246;PMS7003;6186;52.022;4.692;2023-04-01T04:04:37;5.75;4.75;2.00
12246;PMS7003;6186;52.022;4.692;2023-04-01T04:07:02;7.00;4.00;2.00
12246;PMS7003;6186;52.022;4.692;2023-04-01T04:09:29;8.50;4.75;1.50
12246;PMS7003;6186;52.022;4.692;2023-04-01T04:11:55;5.20;4.80;2.00
12246;PMS7003;6186;52.022;4.692;2023-04-01T04:14:22;8.00;6.25;2.00
12246;PMS7003;6186;52.022;4.692;2023-04-01T04:16:48;7.60;6.80;2.00
12246;PMS7003;6186;52.022;4.692;2023-04-01T04:19:13;8.00;7.50;3.00
12246;PMS7003;6186;52.022;4.692;2023-04-01T04:21:39;8.25;6.75;2.00
12246;PMS7003;6186;52.022;4.692;2023-04-01T04:24:05;8.60;6.20;2.80
12246;PMS7003;6186;52.022;4.692;2023-04-01T04:26:31;7.25;5.25;2.00
12246;PMS7003;6186;52.022;4.692;2023-04-01T04:28:56;7.00;5.75;2.00
12246;PMS7003;6186;52.022;4.692;2023-04-01T04:31:22;7.00;5.00;1.00
12246;PMS7003;6186;52.022;4.692;2023-04-01T04:33:49;9.80;6.20;2.20
12246;PMS7003;6186;52.022;4.692;2023-04-01T04:36:16;7.20;6.60;2.00
12246;PMS7003;6186;52.022;4.692;2023-04-01T04:38:41;6.75;5.25;2.00
12246;PMS7003;6186;52.022;4.692;2023-04-01T04:41:10;9.50;7.50;2.00
12246;PMS7003;6186;52.022;4.692;2023-04-01T04:43:37;7.20;7.00;3.00
12246;PMS7003;6186;52.022;4.692;2023-04-01T04:46:05;8.00;6.20;2.20
12246;PMS7003;6186;52.022;4.692;2023-04-01T04:48:31;7.60;7.40;2.00
12246;PMS7003;6186;52.022;4.692;2023-04-01T04:50:57;7.75;7.00;2.00
12246;PMS7003;6186;52.022;4.692;2023-04-01T04:53:22;7.50;7.00;2.75
12246;PMS7003;6186;52.022;4.692;2023-04-01T04:55:48;5.25;4.75;2.00
12246;PMS7003;6186;52.022;4.692;2023-04-01T04:58:15;9.00;6.60;2.40
12246;PMS7003;6186;52.022;4.692;2023-04-01T05:00:41;8.00;8.00;3.00
12246;PMS7003;6186;52.022;4.692;2023-04-01T05:03:07;9.25;8.75;3.00
12246;PMS7003;6186;52.022;4.692;2023-04-01T05:05:32;7.60;7.40;3.80
12246;PMS7003;6186;52.022;4.692;2023-04-01T05:07:58;8.50;7.25;3.00
12246;PMS7003;6186;52.022;4.692;2023-04-01T05:10:23;7.00;7.00;3.00
12246;PMS7003;6186;52.022;4.692;2023-04-01T05:12:49;8.00;7.00;3.00
12246;PMS7003;6186;52.022;4.692;2023-04-01T05:15:14;11.00;9.00;3.25
12246;PMS7003;6186;52.022;4.692;2023-04-01T05:17:40;8.25;8.00;3.00
12246;PMS7003;6186;52.022;4.692;2023-04-01T05:20:05;7.00;7.00;3.50
12246;PMS7003;6186;52.022;4.692;2023-04-01T05:22:31;8.60;7.40;3.00
12246;PMS7003;6186;52.022;4.692;2023-04-01T05:24:57;9.00;8.25;3.00
12246;PMS7003;6186;52.022;4.692;2023-04-01T05:27:22;8.25;7.50;2.25
12246;PMS7003;6186;52.022;4.692;2023-04-01T05:29:47;7.25;7.25;3.00
12246;PMS7003;6186;52.022;4.692;2023-04-01T05:32:13;9.25;8.00;3.00
12246;PMS7003;6186;52.022;4.692;2023-04-01T05:34:38;8.75;8.00;3.00
12246;PMS7003;6186;52.022;4.692;2023-04-01T05:37:04;7.25;6.25;2.00
12246;PMS7003;6186;52.022;4.692;2023-04-01T05:39:29;8.00;6.25;2.00
12246;PMS7003;6186;52.022;4.692;2023-04-01T05:41:54;5.25;5.25;2.00
12246;PMS7003;6186;52.022;4.692;2023-04-01T05:44:20;7.50;6.00;3.00
12246;PMS7003;6186;52.022;4.692;2023-04-01T05:46:45;10.50;8.00;2.25
12246;PMS7003;6186;52.022;4.692;2023-04-01T05:49:10;8.00;8.00;3.00
12246;PMS7003;6186;52.022;4.692;2023-04-01T05:51:36;7.00;7.00;2.75
12246;PMS7003;6186;52.022;4.692;2023-04-01T05:54:01;6.00;4.50;1.50
12246;PMS7003;6186;52.022;4.692;2023-04-01T05:56:28;7.00;7.00;2.40
12246;PMS7003;6186;52.022;4.692;2023-04-01T05:58:54;7.75;7.00;2.25
12246;PMS7003;6186;52.022;4.692;2023-04-01T06:01:19;7.50;7.00;2.00
12246;PMS7003;6186;52.022;4.692;2023-04-01T06:03:45;8.00;7.25;3.00
12246;PMS7003;6186;52.022;4.692;2023-04-01T06:06:23;7.75;7.25;2.00
12246;PMS7003;6186;52.022;4.692;2023-04-01T06:08:50;5.00;5.00;2.00
12246;PMS7003;6186;52.022;4.692;2023-04-01T06:19:07;7.80;7.00;2.00
12246;PMS7003;6186;52.022;4.692;2023-04-01T06:30:02;9.00;8.00;3.20
12246;PMS7003;6186;52.022;4.692;2023-04-01T06:38:48;9.20;8.00;4.00
12246;PMS7003;6186;52.022;4.692;2023-04-01T06:44:17;13.00;10.60;5.20
12246;PMS7003;6186;52.022;4.692;2023-04-01T06:49:36;15.40;11.60;7.00
12246;PMS7003;6186;52.022;4.692;2023-04-01T06:55:02;15.80;13.40;7.00
12246;PMS7003;6186;52.022;4.692;2023-04-01T06:57:50;12.40;9.80;5.40
12246;PMS7003;6186;52.022;4.692;2023-04-01T07:00:36;12.60;10.40;4.00
12246;PMS7003;6186;52.022;4.692;2023-04-01T07:03:21;13.60;12.40;5.20
12246;PMS7003;6186;52.022;4.692;2023-04-01T07:05:56;12.80;10.20;5.20
12246;PMS7003;6186;52.022;4.692;2023-04-01T07:08:27;10.20;9.00;4.00
12246;PMS7003;6186;52.022;4.692;2023-04-01T07:11:04;11.80;8.60;3.40
12246;PMS7003;6186;52.022;4.692;2023-04-01T07:13:36;8.60;8.40;3.40
12246;PMS7003;6186;52.022;4.692;2023-04-01T07:16:17;11.60;10.40;5.20
12246;PMS7003;6186;52.022;4.692;2023-04-01T07:24:27;8.80;8.60;3.40
12246;PMS7003;6186;52.022;4.692;2023-04-01T07:26:57;12.60;10.80;5.40
12246;PMS7003;6186;52.022;4.692;2023-04-01T07:29:23;13.00;9.40;4.00
12246;PMS7003;6186;52.022;4.692;2023-04-01T07:34:51;9.20;9.00;4.00
12246;PMS7003;6186;52.022;4.692;2023-04-01T07:43:11;9.20;8.00;3.00
12246;PMS7003;6186;52.022;4.692;2023-04-01T07:45:47;9.80;8.80;3.60
12246;PMS7003;6186;52.022;4.692;2023-04-01T07:50:59;9.00;7.75;3.00
12246;PMS7003;6186;52.022;4.692;2023-04-01T07:56:05;11.40;9.00;3.60
12246;PMS7003;6186;52.022;4.692;2023-04-01T08:14:15;8.00;8.00;3.80
12246;PMS7003;6186;52.022;4.692;2023-04-01T08:17:05;8.20;8.20;2.60
12246;PMS7003;6186;52.022;4.692;2023-04-01T08:22:35;8.40;6.40;3.00
12246;PMS7003;6186;52.022;4.692;2023-04-01T08:25:06;7.20;5.80;2.00
12246;PMS7003;6186;52.022;4.692;2023-04-01T08:27:45;9.60;8.80;3.00
12246;PMS7003;6186;52.022;4.692;2023-04-01T08:30:20;7.40;6.60;2.60
12246;PMS7003;6186;52.022;4.692;2023-04-01T08:32:53;7.00;5.20;2.00
12246;PMS7003;6186;52.022;4.692;2023-04-01T08:35:27;8.00;7.00;3.00
12246;PMS7003;6186;52.022;4.692;2023-04-01T08:37:57;6.20;5.20;2.00
12246;PMS7003;6186;52.022;4.692;2023-04-01T08:40:44;8.00;7.00;2.00
12246;PMS7003;6186;52.022;4.692;2023-04-01T08:43:29;8.80;7.00;2.60
12246;PMS7003;6186;52.022;4.692;2023-04-01T08:57:21;7.00;5.60;3.00
12246;PMS7003;6186;52.022;4.692;2023-04-01T09:05:37;9.80;9.00;4.00
12246;PMS7003;6186;52.022;4.692;2023-04-01T09:19:51;7.80;6.60;2.80
12246;PMS7003;6186;52.022;4.692;2023-04-01T09:22:57;4.00;4.00;2.00
12246;PMS7003;6186;52.022;4.692;2023-04-01T09:31:04;7.00;5.00;2.00
12246;PMS7003;6186;52.022;4.692;2023-04-01T09:33:51;10.80;7.00;2.00
12246;PMS7003;6186;52.022;4.692;2023-04-01T09:45:35;7.80;7.20;3.00
12246;PMS7003;6186;52.022;4.692;2023-04-01T09:54:00;7.00;5.20;1.80
12246;PMS7003;6186;52.022;4.692;2023-04-01T10:08:11;3.00;3.00;1.00
12246;PMS7003;6186;52.022;4.692;2023-04-01T10:10:58;7.20;5.00;2.00
12246;PMS7003;6186;52.022;4.692;2023-04-01T10:13:52;4.00;3.40;1.00
12246;PMS7003;6186;52.022;4.692;2023-04-01T10:16:46;5.40;4.40;2.00
12246;PMS7003;6186;52.022;4.692;2023-04-01T10:24:52;6.20;4.80;1.80
12246;PMS7003;6186;52.022;4.692;2023-04-01T10:27:33;6.40;4.80;2.00
12246;PMS7003;6186;52.022;4.692;2023-04-01T10:38:31;10.40;7.00;2.00
12246;PMS7003;6186;52.022;4.692;2023-04-01T10:41:44;4.40;4.40;2.00
12246;PMS7003;6186;52.022;4.692;2023-04-01T10:44:53;5.60;4.40;2.00
12246;PMS7003;6186;52.022;4.692;2023-04-01T10:56:15;7.40;6.00;2.20
12246;PMS7003;6186;52.022;4.692;2023-04-01T10:59:12;6.20;4.60;2.00
12246;PMS7003;6186;52.022;4.692;2023-04-01T11:13:17;7.00;5.20;2.00
12246;PMS7003;6186;52.022;4.692;2023-04-01T11:35:38;4.60;4.00;2.00
12246;PMS7003;6186;52.022;4.692;2023-04-01T11:44:21;6.60;5.00;2.00
12246;PMS7003;6186;52.022;4.692;2023-04-01T12:01:12;5.60;4.80;2.00
12246;PMS7003;6186;52.022;4.692;2023-04-01T12:04:06;5.00;5.00;2.40
12246;PMS7003;6186;52.022;4.692;2023-04-01T12:09:48;6.20;5.20;2.00
12246;PMS7003;6186;52.022;4.692;2023-04-01T12:26:13;9.80;6.40;3.00
12246;PMS7003;6186;52.022;4.692;2023-04-01T12:34:00;7.00;6.40;3.00
12246;PMS7003;6186;52.022;4.692;2023-04-01T12:39:30;9.00;8.00;3.80
12246;PMS7003;6186;52.022;4.692;2023-04-01T12:55:53;9.00;9.00;4.00
12246;PMS7003;6186;52.022;4.692;2023-04-01T13:03:44;9.60;7.40;3.00
12246;PMS7003;6186;52.022;4.692;2023-04-01T13:22:47;8.40;7.00;3.00
12246;PMS7003;6186;52.022;4.692;2023-04-01T13:25:44;5.00;5.00;2.00
12246;PMS7003;6186;52.022;4.692;2023-04-01T13:28:25;10.20;8.00;3.00
12246;PMS7003;6186;52.022;4.692;2023-04-01T13:36:08;11.60;9.00;4.00
12246;PMS7003;6186;52.022;4.692;2023-04-01T13:39:04;10.40;7.80;3.00
12246;PMS7003;6186;52.022;4.692;2023-04-01T13:44:19;5.00;5.00;3.00
12246;PMS7003;6186;52.022;4.692;2023-04-01T13:49:45;5.40;5.00;2.00
12246;PMS7003;6186;52.022;4.692;2023-04-01T13:55:18;7.20;5.80;2.00
12246;PMS7003;6186;52.022;4.692;2023-04-01T14:03:37;5.00;5.00;2.20
12246;PMS7003;6186;52.022;4.692;2023-04-01T14:06:19;5.80;5.00;2.40
12246;PMS7003;6186;52.022;4.692;2023-04-01T14:39:22;4.20;4.00;1.00
12246;PMS7003;6186;52.022;4.692;2023-04-01T14:47:43;4.40;4.00;2.00
12246;PMS7003;6186;52.022;4.692;2023-04-01T14:50:16;4.00;4.00;2.00
12246;PMS7003;6186;52.022;4.692;2023-04-01T14:53:11;4.00;4.00;1.20
12246;PMS7003;6186;52.022;4.692;2023-04-01T14:55:43;4.00;4.00;2.00
12246;PMS7003;6186;52.022;4.692;2023-04-01T14:58:15;3.00;3.00;1.00
12246;PMS7003;6186;52.022;4.692;2023-04-01T15:03:32;4.20;4.00;1.80
12246;PMS7003;6186;52.022;4.692;2023-04-01T15:12:00;4.00;4.00;1.40
12246;PMS7003;6186;52.022;4.692;2023-04-01T15:22:38;4.40;4.00;1.60
12246;PMS7003;6186;52.022;4.692;2023-04-01T15:39:28;6.20;5.00;2.00
12246;PMS7003;6186;52.022;4.692;2023-04-01T16:12:32;5.20;5.20;2.00
12246;PMS7003;6186;52.022;4.692;2023-04-01T16:23:19;6.60;6.60;2.00
12246;PMS7003;6186;52.022;4.692;2023-04-01T16:26:12;4.60;4.60;1.80
12246;PMS7003;6186;52.022;4.692;2023-04-01T16:33:51;7.40;7.00;3.00
12246;PMS7003;6186;52.022;4.692;2023-04-01T16:36:32;4.40;4.00;2.00
12246;PMS7003;6186;52.022;4.692;2023-04-01T16:41:49;5.20;5.20;2.00
12246;PMS7003;6186;52.022;4.692;2023-04-01T16:44:24;8.80;7.80;3.00
12246;PMS7003;6186;52.022;4.692;2023-04-01T16:46:53;4.00;4.00;2.00
12246;PMS7003;6186;52.022;4.692;2023-04-01T16:49:25;5.20;5.20;2.80
12246;PMS7003;6186;52.022;4.692;2023-04-01T16:54:43;5.80;5.40;2.60
12246;PMS7003;6186;52.022;4.692;2023-04-01T16:57:16;6.00;5.60;2.40
12246;PMS7003;6186;52.022;4.692;2023-04-01T16:59:47;9.00;7.00;3.00
12246;PMS7003;6186;52.022;4.692;2023-04-01T17:02:22;8.20;6.60;2.00
12246;PMS7003;6186;52.022;4.692;2023-04-01T17:04:57;6.80;6.80;3.00
12246;PMS7003;6186;52.022;4.692;2023-04-01T17:18:37;5.20;3.80;1.20
12246;PMS7003;6186;52.022;4.692;2023-04-01T17:20:56;5.20;5.20;2.20
12246;PMS7003;6186;52.022;4.692;2023-04-01T17:23:36;4.00;4.00;2.00
12246;PMS7003;6186;52.022;4.692;2023-04-01T17:26:08;5.80;5.80;2.00
12246;PMS7003;6186;52.022;4.692;2023-04-01T17:37:19;4.00;4.00;1.40
12246;PMS7003;6186;52.022;4.692;2023-04-01T18:06:42;4.00;4.00;2.00
12246;PMS7003;6186;52.022;4.692;2023-04-01T18:12:09;3.80;3.80;2.00
12246;PMS7003;6186;52.022;4.692;2023-04-01T18:17:45;3.00;3.00;1.00
12246;PMS7003;6186;52.022;4.692;2023-04-01T18:20:25;3.00;3.00;1.00
12246;PMS7003;6186;52.022;4.692;2023-04-01T18:22:55;3.40;3.40;2.00
12246;PMS7003;6186;52.022;4.692;2023-04-01T18:25:32;4.00;4.00;2.00
12246;PMS7003;6186;52.022;4.692;2023-04-01T18:28:14;3.60;3.60;1.40
12246;PMS7003;6186;52.022;4.692;2023-04-01T18:30:41;4.20;3.60;1.60
12246;PMS7003;6186;52.022;4.692;2023-04-01T18:33:15;4.00;3.20;1.00
12246;PMS7003;6186;52.022;4.692;2023-04-01T18:38:36;4.00;3.60;1.00
12246;PMS7003;6186;52.022;4.692;2023-04-01T18:41:19;5.20;4.00;2.00
12246;PMS7003;6186;52.022;4.692;2023-04-01T18:46:36;3.00;3.00;1.00
12246;PMS7003;6186;52.022;4.692;2023-04-01T18:51:55;4.40;4.00;2.00
12246;PMS7003;6186;52.022;4.692;2023-04-01T18:54:29;4.20;4.20;2.00
12246;PMS7003;6186;52.022;4.692;2023-04-01T18:57:16;4.00;4.00;1.00
12246;PMS7003;6186;52.022;4.692;2023-04-01T18:59:48;5.20;4.40;2.00
12246;PMS7003;6186;52.022;4.692;2023-04-01T19:02:29;6.40;5.40;2.40
12246;PMS7003;6186;52.022;4.692;2023-04-01T19:05:17;5.20;5.20;3.00
12246;PMS7003;6186;52.022;4.692;2023-04-01T19:07:48;5.80;5.80;3.00
12246;PMS7003;6186;52.022;4.692;2023-04-01T19:10:37;5.80;5.80;2.60
12246;PMS7003;6186;52.022;4.692;2023-04-01T19:18:51;6.40;5.60;2.80
12246;PMS7003;6186;52.022;4.692;2023-04-01T19:27:20;7.20;7.20;3.00
12246;PMS7003;6186;52.022;4.692;2023-04-01T19:32:49;6.20;6.20;2.80
12246;PMS7003;6186;52.022;4.692;2023-04-01T19:35:47;8.40;8.40;4.00
12246;PMS7003;6186;52.022;4.692;2023-04-01T19:38:37;4.00;4.00;2.00
12246;PMS7003;6186;52.022;4.692;2023-04-01T19:47:07;6.00;6.00;2.00
12246;PMS7003;6186;52.022;4.692;2023-04-01T19:49:51;6.40;5.60;2.40
12246;PMS7003;6186;52.022;4.692;2023-04-01T19:52:41;8.80;6.60;2.00
12246;PMS7003;6186;52.022;4.692;2023-04-01T19:55:14;7.00;6.00;2.40
12246;PMS7003;6186;52.022;4.692;2023-04-01T20:00:44;6.60;6.60;3.00
12246;PMS7003;6186;52.022;4.692;2023-04-01T20:03:24;6.20;6.20;3.00
12246;PMS7003;6186;52.022;4.692;2023-04-01T20:06:15;6.80;5.60;2.00
12246;PMS7003;6186;52.022;4.692;2023-04-01T20:08:54;7.80;7.00;3.00
12246;PMS7003;6186;52.022;4.692;2023-04-01T20:14:26;6.60;6.00;2.60
12246;PMS7003;6186;52.022;4.692;2023-04-01T20:19:39;5.60;4.20;2.00
12246;PMS7003;6186;52.022;4.692;2023-04-01T20:22:16;6.60;6.00;2.00
12246;PMS7003;6186;52.022;4.692;2023-04-01T20:24:53;7.00;7.00;3.00
12246;PMS7003;6186;52.022;4.692;2023-04-01T20:27:38;7.80;7.00;3.00
12246;PMS7003;6186;52.022;4.692;2023-04-01T20:30:21;6.80;6.00;2.00
12246;PMS7003;6186;52.022;4.692;2023-04-01T20:33:13;6.60;6.00;2.00
12246;PMS7003;6186;52.022;4.692;2023-04-01T20:44:20;8.00;7.00;3.00
12246;PMS7003;6186;52.022;4.692;2023-04-01T20:58:24;6.00;6.00;2.00
12246;PMS7003;6186;52.022;4.692;2023-04-01T21:01:13;7.60;6.20;3.00
12246;PMS7003;6186;52.022;4.692;2023-04-01T21:09:07;6.20;5.00;2.00
12246;PMS7003;6186;52.022;4.692;2023-04-01T21:17:08;8.40;7.00;3.00
12246;PMS7003;6186;52.022;4.692;2023-04-01T21:34:25;6.40;6.00;2.00
12246;PMS7003;6186;52.022;4.692;2023-04-01T21:39:54;8.00;8.00;3.40
12246;PMS7003;6186;52.022;4.692;2023-04-01T22:02:24;8.00;6.80;3.20
12246;PMS7003;6186;52.022;4.692;2023-04-01T22:07:49;7.60;6.60;2.40
12246;PMS7003;6186;52.022;4.692;2023-04-01T22:10:27;6.60;6.20;2.40
12246;PMS7003;6186;52.022;4.692;2023-04-01T22:13:03;6.00;6.00;3.00
12246;PMS7003;6186;52.022;4.692;2023-04-01T22:21:12;8.40;6.80;3.00
12246;PMS7003;6186;52.022;4.692;2023-04-01T22:35:21;7.00;6.00;2.20
12246;PMS7003;6186;52.022;4.692;2023-04-01T22:40:33;8.20;7.20;3.00
12246;PMS7003;6186;52.022;4.692;2023-04-01T22:43:06;8.80;7.20;3.00
12246;PMS7003;6186;52.022;4.692;2023-04-01T22:49:05;8.00;8.00;3.00
12246;PMS7003;6186;52.022;4.692;2023-04-01T22:51:44;9.20;8.00;3.00
12246;PMS7003;6186;52.022;4.692;2023-04-01T23:02:17;9.80;7.40;3.00
12246;PMS7003;6186;52.022;4.692;2023-04-01T23:04:45;7.00;7.00;3.40
12246;PMS7003;6186;52.022;4.692;2023-04-01T23:10:02;8.20;8.20;3.20
12246;PMS7003;6186;52.022;4.692;2023-04-01T23:12:37;10.60;8.40;4.00
12246;PMS7003;6186;52.022;4.692;2023-04-01T23:15:10;7.00;7.00;3.00
12246;PMS7003;6186;52.022;4.692;2023-04-01T23:17:42;8.80;7.60;4.40
12246;PMS7003;6186;52.022;4.692;2023-04-01T23:25:31;8.00;7.00;3.00
12246;PMS7003;6186;52.022;4.692;2023-04-01T23:33:49;12.25;9.25;4.25
12246;PMS7003;6186;52.022;4.692;2023-04-01T23:38:38;9.20;8.60;3.60
12246;PMS7003;6186;52.022;4.692;2023-04-01T23:41:07;8.00;7.60;3.40
12246;PMS7003;6186;52.022;4.692;2023-04-01T23:43:45;10.40;8.20;4.40
12246;PMS7003;6186;52.022;4.692;2023-04-01T23:46:17;10.00;8.00;4.40
12246;PMS7003;6186;52.022;4.692;2023-04-01T23:48:43;9.00;7.25;3.00
12246;PMS7003;6186;52.022;4.692;2023-04-01T23:51:35;6.80;6.20;2.20
12246;PMS7003;6186;52.022;4.692;2023-04-01T23:54:11;8.40;7.80;4.20
12246;PMS7003;6186;52.022;4.692;2023-04-01T23:56:46;7.00;7.00;2.80
12246;PMS7003;6186;52.022;4.692;2023-04-01T23:59:16;11.40;9.60;5.20
